sensor_id;sensor_type;location;lat;lon;timestamp;pressure;altitude;pressure_sealevel;temperature;humidity
51297;BME280;37380;45.186;9.792;2023-09-19T00:02:13;100746.06;;;19.79;100.00
51297;BME280;37380;45.186;9.792;2023-09-19T00:05:14;100739.84;;;19.85;100.00
51297;BME280;37380;45.186;9.792;2023-09-19T00:08:18;100746.91;;;19.89;100.00
51297;BME280;37380;45.186;9.792;2023-09-19T00:11:12;100722.22;;;19.68;100.00
51297;BME280;37380;45.186;9.792;2023-09-19T00:13:39;100741.63;;;19.72;100.00
51297;BME280;37380;45.186;9.792;2023-09-19T00:16:10;100745.19;;;19.73;100.00
51297;BME280;37380;45.186;9.792;2023-09-19T00:18:38;100739.88;;;19.63;100.00
51297;BME280;37380;45.186;9.792;2023-09-19T00:21:05;100710.78;;;19.37;100.00
51297;BME280;37380;45.186;9.792;2023-09-19T00:23:33;100719.56;;;19.53;100.00
51297;BME280;37380;45.186;9.792;2023-09-19T00:26:01;100697.50;;;19.47;100.00
51297;BME280;37380;45.186;9.792;2023-09-19T00:28:28;100706.28;;;19.62;100.00
51297;BME280;37380;45.186;9.792;2023-09-19T00:30:58;100722.19;;;19.87;100.00
51297;BME280;37380;45.186;9.792;2023-09-19T00:33:28;100679.78;;;19.62;100.00
51297;BME280;37380;45.186;9.792;2023-09-19T00:35:56;100731.00;;;19.86;100.00
51297;BME280;37380;45.186;9.792;2023-09-19T00:38:24;100712.50;;;19.75;100.00
51297;BME280;37380;45.186;9.792;2023-09-19T00:40:54;100670.97;;;19.51;100.00
51297;BME280;37380;45.186;9.792;2023-09-19T00:43:27;100727.50;;;19.87;100.00
51297;BME280;37380;45.186;9.792;2023-09-19T00:45:56;100722.16;;;19.88;100.00
51297;BME280;37380;45.186;9.792;2023-09-19T00:48:25;100726.63;;;19.77;100.00
51297;BME280;37380;45.186;9.792;2023-09-19T00:51:04;100724.84;;;19.82;100.00
51297;BME280;37380;45.186;9.792;2023-09-19T00:53:58;100705.44;;;19.56;100.00
51297;BME280;37380;45.186;9.792;2023-09-19T00:56:26;100697.50;;;19.45;100.00
51297;BME280;37380;45.186;9.792;2023-09-19T00:58:53;100587.22;;;18.87;100.00
51297;BME280;37380;45.186;9.792;2023-09-19T01:01:27;100675.44;;;19.46;100.00
51297;BME280;37380;45.186;9.792;2023-09-19T01:04:28;100657.75;;;19.34;100.00
51297;BME280;37380;45.186;9.792;2023-09-19T01:07:22;100680.75;;;19.29;100.00
51297;BME280;37380;45.186;9.792;2023-09-19T01:09:49;100690.44;;;19.22;100.00
51297;BME280;37380;45.186;9.792;2023-09-19T01:12:22;100716.91;;;19.56;100.00
51297;BME280;37380;45.186;9.792;2023-09-19T01:15:05;100678.09;;;19.29;100.00
51297;BME280;37380;45.186;9.792;2023-09-19T01:17:41;100719.56;;;19.62;100.00
51297;BME280;37380;45.186;9.792;2023-09-19T01:23:20;100715.13;;;19.80;100.00
51297;BME280;37380;45.186;9.792;2023-09-19T01:26:03;100721.31;;;19.74;100.00
51297;BME280;37380;45.186;9.792;2023-09-19T01:29:00;100723.09;;;19.54;100.00
51297;BME280;37380;45.186;9.792;2023-09-19T01:31:31;100722.25;;;19.41;100.00
51297;BME280;37380;45.186;9.792;2023-09-19T01:34:02;100621.66;;;18.95;100.00
51297;BME280;37380;45.186;9.792;2023-09-19T01:36:36;100735.50;;;19.44;100.00
51297;BME280;37380;45.186;9.792;2023-09-19T01:39:13;100694.91;;;19.20;100.00
51297;BME280;37380;45.186;9.792;2023-09-19T01:44:34;100699.28;;;19.35;100.00
51297;BME280;37380;45.186;9.792;2023-09-19T01:47:12;100743.41;;;19.59;100.00
51297;BME280;37380;45.186;9.792;2023-09-19T01:49:56;100735.47;;;19.65;100.00
51297;BME280;37380;45.186;9.792;2023-09-19T01:52:30;100726.63;;;19.54;100.00
51297;BME280;37380;45.186;9.792;2023-09-19T01:55:06;100735.47;;;19.39;100.00
51297;BME280;37380;45.186;9.792;2023-09-19T01:57:45;100718.69;;;19.34;100.00
51297;BME280;37380;45.186;9.792;2023-09-19T02:00:16;100707.22;;;19.40;100.00
51297;BME280;37380;45.186;9.792;2023-09-19T02:02:52;100753.16;;;19.45;100.00
51297;BME280;37380;45.186;9.792;2023-09-19T02:05:51;100744.31;;;19.55;100.00
51297;BME280;37380;45.186;9.792;2023-09-19T02:08:22;100748.72;;;19.45;100.00
51297;BME280;37380;45.186;9.792;2023-09-19T02:10:52;100728.44;;;19.12;100.00
51297;BME280;37380;45.186;9.792;2023-09-19T02:13:21;100735.50;;;19.03;100.00
51297;BME280;37380;45.186;9.792;2023-09-19T02:15:51;100748.75;;;19.07;100.00
51297;BME280;37380;45.186;9.792;2023-09-19T02:18:18;100742.53;;;19.05;100.00
51297;BME280;37380;45.186;9.792;2023-09-19T02:20:47;100739.03;;;19.15;100.00
51297;BME280;37380;45.186;9.792;2023-09-19T02:23:14;100727.53;;;19.10;100.00
51297;BME280;37380;45.186;9.792;2023-09-19T02:25:42;100738.16;;;19.18;100.00
51297;BME280;37380;45.186;9.792;2023-09-19T02:28:10;100698.41;;;19.04;100.00
51297;BME280;37380;45.186;9.792;2023-09-19T02:30:38;100730.22;;;19.09;100.00
51297;BME280;37380;45.186;9.792;2023-09-19T02:33:05;100675.47;;;18.77;100.00
51297;BME280;37380;45.186;9.792;2023-09-19T02:35:32;100734.63;;;19.20;100.00
51297;BME280;37380;45.186;9.792;2023-09-19T02:38:02;100729.31;;;19.16;100.00
51297;BME280;37380;45.186;9.792;2023-09-19T02:40:33;100724.03;;;19.08;100.00
51297;BME280;37380;45.186;9.792;2023-09-19T02:43:03;100722.25;;;19.01;100.00
51297;BME280;37380;45.186;9.792;2023-09-19T02:45:31;100735.47;;;19.22;100.00
51297;BME280;37380;45.186;9.792;2023-09-19T02:47:59;100734.63;;;19.20;100.00
51297;BME280;37380;45.186;9.792;2023-09-19T02:50:27;100720.50;;;19.15;100.00
51297;BME280;37380;45.186;9.792;2023-09-19T02:52:54;100722.25;;;19.13;100.00
51297;BME280;37380;45.186;9.792;2023-09-19T02:55:21;100746.09;;;19.18;100.00
51297;BME280;37380;45.186;9.792;2023-09-19T02:57:54;100754.03;;;19.22;100.00
51297;BME280;37380;45.186;9.792;2023-09-19T03:00:22;100748.72;;;19.22;100.00
51297;BME280;37380;45.186;9.792;2023-09-19T03:02:56;100737.25;;;19.10;100.00
51297;BME280;37380;45.186;9.792;2023-09-19T03:05:57;100746.97;;;19.00;100.00
51297;BME280;37380;45.186;9.792;2023-09-19T03:08:51;100716.03;;;18.79;100.00
51297;BME280;37380;45.186;9.792;2023-09-19T03:11:41;100744.34;;;18.94;100.00
51297;BME280;37380;45.186;9.792;2023-09-19T03:14:08;100719.59;;;18.81;100.00
51297;BME280;37380;45.186;9.792;2023-09-19T03:16:37;100717.84;;;18.83;100.00
51297;BME280;37380;45.186;9.792;2023-09-19T03:19:04;100737.25;;;18.90;100.00
51297;BME280;37380;45.186;9.792;2023-09-19T03:21:32;100724.00;;;19.02;100.00
51297;BME280;37380;45.186;9.792;2023-09-19T03:23:59;100649.84;;;18.65;100.00
51297;BME280;37380;45.186;9.792;2023-09-19T03:26:26;100679.00;;;18.87;100.00
51297;BME280;37380;45.186;9.792;2023-09-19T03:28:53;100760.22;;;19.26;100.00
51297;BME280;37380;45.186;9.792;2023-09-19T03:31:21;100642.75;;;18.43;100.00
51297;BME280;37380;45.186;9.792;2023-09-19T03:33:48;100748.72;;;19.13;100.00
51297;BME280;37380;45.186;9.792;2023-09-19T03:36:15;100720.50;;;18.94;100.00
51297;BME280;37380;45.186;9.792;2023-09-19T03:38:42;100758.44;;;19.07;100.00
51297;BME280;37380;45.186;9.792;2023-09-19T03:41:09;100749.63;;;19.06;100.00
51297;BME280;37380;45.186;9.792;2023-09-19T03:43:36;100665.78;;;18.77;100.00
51297;BME280;37380;45.186;9.792;2023-09-19T03:46:03;100733.75;;;19.20;100.00
51297;BME280;37380;45.186;9.792;2023-09-19T03:48:32;100629.56;;;18.72;100.00
51297;BME280;37380;45.186;9.792;2023-09-19T03:51:01;100679.91;;;18.86;100.00
51297;BME280;37380;45.186;9.792;2023-09-19T03:53:29;100671.94;;;18.87;100.00
51297;BME280;37380;45.186;9.792;2023-09-19T03:55:56;100718.72;;;19.20;100.00
51297;BME280;37380;45.186;9.792;2023-09-19T03:58:24;100700.19;;;19.11;100.00
51297;BME280;37380;45.186;9.792;2023-09-19T04:00:55;100748.75;;;19.41;100.00
51297;BME280;37380;45.186;9.792;2023-09-19T04:03:29;100724.91;;;19.16;100.00
51297;BME280;37380;45.186;9.792;2023-09-19T04:06:36;100720.47;;;19.28;100.00
51297;BME280;37380;45.186;9.792;2023-09-19T04:09:03;100677.22;;;19.07;100.00
51297;BME280;37380;45.186;9.792;2023-09-19T04:11:30;100701.06;;;19.22;100.00
51297;BME280;37380;45.186;9.792;2023-09-19T04:13:57;100713.44;;;19.27;100.00
51297;BME280;37380;45.186;9.792;2023-09-19T04:16:25;100725.78;;;19.34;100.00
51297;BME280;37380;45.186;9.792;2023-09-19T04:18:52;100716.94;;;19.22;100.00
51297;BME280;37380;45.186;9.792;2023-09-19T04:21:19;100704.63;;;19.00;100.00
51297;BME280;37380;45.186;9.792;2023-09-19T04:23:46;100719.63;;;18.99;100.00
51297;BME280;37380;45.186;9.792;2023-09-19T04:26:14;100723.13;;;19.11;100.00
51297;BME280;37380;45.186;9.792;2023-09-19T04:28:43;100743.44;;;19.22;100.00
51297;BME280;37380;45.186;9.792;2023-09-19T04:31:10;100739.94;;;19.37;100.00
51297;BME280;37380;45.186;9.792;2023-09-19T04:33:38;100723.13;;;19.48;100.00
51297;BME280;37380;45.186;9.792;2023-09-19T04:36:06;100706.38;;;19.32;100.00
51297;BME280;37380;45.186;9.792;2023-09-19T04:38:54;100699.28;;;19.25;100.00
51297;BME280;37380;45.186;9.792;2023-09-19T04:41:21;100704.56;;;19.34;100.00
51297;BME280;37380;45.186;9.792;2023-09-19T04:43:49;100755.78;;;19.59;100.00
51297;BME280;37380;45.186;9.792;2023-09-19T04:46:19;100687.81;;;18.96;100.00
51297;BME280;37380;45.186;9.792;2023-09-19T04:48:47;100687.81;;;19.22;100.00
51297;BME280;37380;45.186;9.792;2023-09-19T04:51:14;100723.13;;;19.48;100.00
51297;BME280;37380;45.186;9.792;2023-09-19T04:53:41;100768.13;;;19.87;100.00
51297;BME280;37380;45.186;9.792;2023-09-19T04:56:09;100754.00;;;19.81;100.00
51297;BME280;37380;45.186;9.792;2023-09-19T04:58:38;100743.41;;;19.76;100.00
51297;BME280;37380;45.186;9.792;2023-09-19T05:01:05;100736.31;;;19.63;100.00
51297;BME280;37380;45.186;9.792;2023-09-19T05:03:39;100801.72;;;19.90;100.00
51297;BME280;37380;45.186;9.792;2023-09-19T05:06:43;100746.97;;;19.25;100.00
51297;BME280;37380;45.186;9.792;2023-09-19T05:09:45;100813.22;;;19.66;100.00
51297;BME280;37380;45.186;9.792;2023-09-19T05:12:46;100808.81;;;19.50;100.00
51297;BME280;37380;45.186;9.792;2023-09-19T05:15:40;100754.06;;;19.32;100.00
51297;BME280;37380;45.186;9.792;2023-09-19T05:18:07;100802.63;;;19.74;100.00
51297;BME280;37380;45.186;9.792;2023-09-19T05:20:34;100811.44;;;19.93;100.00
51297;BME280;37380;45.186;9.792;2023-09-19T05:23:06;100772.56;;;19.72;100.00
51297;BME280;37380;45.186;9.792;2023-09-19T05:25:40;100822.00;;;20.08;100.00
51297;BME280;37380;45.186;9.792;2023-09-19T05:28:09;100805.25;;;19.64;100.00
51297;BME280;37380;45.186;9.792;2023-09-19T05:30:37;100779.66;;;19.73;100.00
51297;BME280;37380;45.186;9.792;2023-09-19T05:33:05;100830.84;;;20.16;100.00
51297;BME280;37380;45.186;9.792;2023-09-19T05:35:33;100699.25;;;19.51;100.00
51297;BME280;37380;45.186;9.792;2023-09-19T05:38:00;100838.78;;;20.18;100.00
51297;BME280;37380;45.186;9.792;2023-09-19T05:40:27;100812.28;;;20.02;100.00
51297;BME280;37380;45.186;9.792;2023-09-19T05:42:54;100827.22;;;20.35;100.00
51297;BME280;37380;45.186;9.792;2023-09-19T05:45:21;100732.78;;;19.85;100.00
51297;BME280;37380;45.186;9.792;2023-09-19T05:47:53;100852.81;;;20.66;100.00
51297;BME280;37380;45.186;9.792;2023-09-19T05:50:34;100811.25;;;20.45;100.00
51297;BME280;37380;45.186;9.792;2023-09-19T05:53:28;100817.44;;;20.57;100.00
51297;BME280;37380;45.186;9.792;2023-09-19T05:55:55;100819.09;;;20.83;100.00
51297;BME280;37380;45.186;9.792;2023-09-19T05:58:22;100798.81;;;20.62;100.00
51297;BME280;37380;45.186;9.792;2023-09-19T06:00:49;100831.56;;;20.69;100.00
51297;BME280;37380;45.186;9.792;2023-09-19T06:03:23;100813.81;;;20.71;100.00
51297;BME280;37380;45.186;9.792;2023-09-19T06:06:25;100844.56;;;21.13;100.00
51297;BME280;37380;45.186;9.792;2023-09-19T06:09:27;100802.34;;;20.67;100.00
51297;BME280;37380;45.186;9.792;2023-09-19T06:12:21;100833.19;;;20.91;100.00
51297;BME280;37380;45.186;9.792;2023-09-19T06:14:55;100854.34;;;21.10;100.00
51297;BME280;37380;45.186;9.792;2023-09-19T06:17:50;100867.53;;;21.27;100.00
51297;BME280;37380;45.186;9.792;2023-09-19T06:20:18;100797.56;;;21.24;100.00
51297;BME280;37380;45.186;9.792;2023-09-19T06:22:56;100845.16;;;21.58;100.00
51297;BME280;37380;45.186;9.792;2023-09-19T06:25:57;100832.69;;;21.68;100.00
51297;BME280;37380;45.186;9.792;2023-09-19T06:28:53;100861.56;;;22.08;100.00
51297;BME280;37380;45.186;9.792;2023-09-19T06:31:21;100818.47;;;21.69;100.00
51297;BME280;37380;45.186;9.792;2023-09-19T06:33:49;100848.16;;;22.19;100.00
51297;BME280;37380;45.186;9.792;2023-09-19T06:36:16;100832.91;;;22.34;100.00
51297;BME280;37380;45.186;9.792;2023-09-19T06:38:44;100818.03;;;22.12;100.00
51297;BME280;37380;45.186;9.792;2023-09-19T06:41:11;100873.88;;;22.94;100.00
51297;BME280;37380;45.186;9.792;2023-09-19T06:43:39;100866.94;;;23.45;100.00
51297;BME280;37380;45.186;9.792;2023-09-19T06:46:06;100865.50;;;22.53;100.00
51297;BME280;37380;45.186;9.792;2023-09-19T06:48:34;100775.94;;;22.48;100.00
51297;BME280;37380;45.186;9.792;2023-09-19T06:51:01;100858.56;;;23.68;100.00
51297;BME280;37380;45.186;9.792;2023-09-19T06:53:32;100850.19;;;23.90;100.00
51297;BME280;37380;45.186;9.792;2023-09-19T06:56:02;100858.16;;;23.39;100.00
51297;BME280;37380;45.186;9.792;2023-09-19T06:58:29;100822.75;;;21.84;100.00
51297;BME280;37380;45.186;9.792;2023-09-19T07:00:58;100848.75;;;21.56;100.00
51297;BME280;37380;45.186;9.792;2023-09-19T07:03:32;100862.88;;;21.58;100.00
51297;BME280;37380;45.186;9.792;2023-09-19T07:06:33;100864.63;;;22.54;100.00
51297;BME280;37380;45.186;9.792;2023-09-19T07:09:34;100871.94;;;22.34;100.00
51297;BME280;37380;45.186;9.792;2023-09-19T07:12:36;100829.28;;;21.51;100.00
51297;BME280;37380;45.186;9.792;2023-09-19T07:15:40;100838.75;;;21.81;100.00
51297;BME280;37380;45.186;9.792;2023-09-19T07:18:41;100841.03;;;22.19;100.00
51297;BME280;37380;45.186;9.792;2023-09-19T07:21:34;100830.94;;;23.15;100.00
51297;BME280;37380;45.186;9.792;2023-09-19T07:24:12;100866.22;;;24.38;100.00
51297;BME280;37380;45.186;9.792;2023-09-19T07:27:09;100837.91;;;25.15;100.00
51297;BME280;37380;45.186;9.792;2023-09-19T07:29:36;100840.28;;;24.45;100.00
51297;BME280;37380;45.186;9.792;2023-09-19T07:32:05;100869.47;;;22.91;100.00
51297;BME280;37380;45.186;9.792;2023-09-19T07:34:33;100820.84;;;23.39;100.00
51297;BME280;37380;45.186;9.792;2023-09-19T07:37:03;100849.19;;;24.45;100.00
51297;BME280;37380;45.186;9.792;2023-09-19T07:39:30;100852.84;;;23.37;100.00
51297;BME280;37380;45.186;9.792;2023-09-19T07:41:57;100867.13;;;22.65;100.00
51297;BME280;37380;45.186;9.792;2023-09-19T07:44:25;100859.47;;;22.41;100.00
51297;BME280;37380;45.186;9.792;2023-09-19T07:46:52;100802.94;;;22.14;100.00
51297;BME280;37380;45.186;9.792;2023-09-19T07:49:29;100881.53;;;23.20;100.00
51297;BME280;37380;45.186;9.792;2023-09-19T07:52:30;100763.13;;;22.05;100.00
51297;BME280;37380;45.186;9.792;2023-09-19T07:55:26;100903.19;;;22.94;100.00
51297;BME280;37380;45.186;9.792;2023-09-19T07:57:53;100873.56;;;22.47;100.00
51297;BME280;37380;45.186;9.792;2023-09-19T08:00:20;100901.47;;;22.90;100.00
51297;BME280;37380;45.186;9.792;2023-09-19T08:02:54;100882.59;;;23.67;100.00
51297;BME280;37380;45.186;9.792;2023-09-19T08:05:56;100870.75;;;24.33;100.00
51297;BME280;37380;45.186;9.792;2023-09-19T08:08:25;100879.50;;;23.36;100.00
51297;BME280;37380;45.186;9.792;2023-09-19T08:10:54;100855.66;;;22.62;100.00
51297;BME280;37380;45.186;9.792;2023-09-19T08:13:23;100910.13;;;23.10;100.00
51297;BME280;37380;45.186;9.792;2023-09-19T08:15:51;100886.00;;;23.19;100.00
51297;BME280;37380;45.186;9.792;2023-09-19T08:18:20;100902.25;;;23.01;100.00
51297;BME280;37380;45.186;9.792;2023-09-19T08:20:52;100847.91;;;23.11;100.00
51297;BME280;37380;45.186;9.792;2023-09-19T08:23:20;100892.56;;;22.95;100.00
51297;BME280;37380;45.186;9.792;2023-09-19T08:25:48;100891.50;;;23.07;100.00
51297;BME280;37380;45.186;9.792;2023-09-19T08:28:15;100880.88;;;23.04;100.00
51297;BME280;37380;45.186;9.792;2023-09-19T08:30:46;100862.94;;;23.17;100.00
51297;BME280;37380;45.186;9.792;2023-09-19T08:33:13;100834.00;;;22.86;100.00
51297;BME280;37380;45.186;9.792;2023-09-19T08:35:42;100891.28;;;23.21;100.00
51297;BME280;37380;45.186;9.792;2023-09-19T08:38:09;100896.84;;;23.05;100.00
51297;BME280;37380;45.186;9.792;2023-09-19T08:40:38;100787.56;;;23.05;100.00
51297;BME280;37380;45.186;9.792;2023-09-19T08:43:08;100839.47;;;22.77;100.00
51297;BME280;37380;45.186;9.792;2023-09-19T08:45:35;100914.03;;;23.48;100.00
51297;BME280;37380;45.186;9.792;2023-09-19T08:50:39;100909.50;;;24.07;100.00
51297;BME280;37380;45.186;9.792;2023-09-19T08:53:11;100918.44;;;24.06;100.00
51297;BME280;37380;45.186;9.792;2023-09-19T08:55:42;100882.19;;;23.36;100.00
51297;BME280;37380;45.186;9.792;2023-09-19T08:58:13;100919.09;;;23.63;100.00
51297;BME280;37380;45.186;9.792;2023-09-19T09:00:48;100925.09;;;23.79;100.00
51297;BME280;37380;45.186;9.792;2023-09-19T09:03:24;100914.41;;;23.79;100.00
51297;BME280;37380;45.186;9.792;2023-09-19T09:06:20;100919.19;;;24.13;100.00
51297;BME280;37380;45.186;9.792;2023-09-19T09:08:47;100923.13;;;24.40;100.00
51297;BME280;37380;45.186;9.792;2023-09-19T09:11:15;100920.50;;;23.89;100.00
51297;BME280;37380;45.186;9.792;2023-09-19T09:13:47;100927.16;;;24.16;100.00
51297;BME280;37380;45.186;9.792;2023-09-19T09:16:16;100855.66;;;23.82;100.00
51297;BME280;37380;45.186;9.792;2023-09-19T09:18:47;100932.31;;;24.27;100.00
51297;BME280;37380;45.186;9.792;2023-09-19T09:21:21;100927.28;;;24.08;100.00
51297;BME280;37380;45.186;9.792;2023-09-19T09:23:49;100850.72;;;23.59;100.00
51297;BME280;37380;45.186;9.792;2023-09-19T09:26:40;100921.78;;;24.17;100.00
51297;BME280;37380;45.186;9.792;2023-09-19T09:29:10;100889.03;;;24.08;100.00
51297;BME280;37380;45.186;9.792;2023-09-19T09:31:37;100895.34;;;24.02;100.00
51297;BME280;37380;45.186;9.792;2023-09-19T09:34:05;100894.97;;;24.24;100.00
51297;BME280;37380;45.186;9.792;2023-09-19T09:36:39;100851.59;;;24.11;100.00
51297;BME280;37380;45.186;9.792;2023-09-19T09:39:08;100890.84;;;24.55;100.00
51297;BME280;37380;45.186;9.792;2023-09-19T09:41:48;100881.44;;;24.33;100.00
51297;BME280;37380;45.186;9.792;2023-09-19T09:44:17;100923.59;;;24.65;100.00
51297;BME280;37380;45.186;9.792;2023-09-19T09:46:48;100913.81;;;25.07;100.00
51297;BME280;37380;45.186;9.792;2023-09-19T09:49:26;100928.75;;;24.74;100.00
51297;BME280;37380;45.186;9.792;2023-09-19T09:52:05;100925.66;;;24.93;100.00
51297;BME280;37380;45.186;9.792;2023-09-19T09:54:38;100827.84;;;24.42;100.00
51297;BME280;37380;45.186;9.792;2023-09-19T09:57:07;100893.41;;;24.60;100.00
51297;BME280;37380;45.186;9.792;2023-09-19T09:59:46;100802.94;;;24.42;100.00
51297;BME280;37380;45.186;9.792;2023-09-19T10:02:26;100921.59;;;25.18;100.00
51297;BME280;37380;45.186;9.792;2023-09-19T10:05:32;100898.00;;;24.95;100.00
51297;BME280;37380;45.186;9.792;2023-09-19T10:08:34;100895.53;;;24.86;100.00
51297;BME280;37380;45.186;9.792;2023-09-19T10:11:29;100867.31;;;24.73;100.00
51297;BME280;37380;45.186;9.792;2023-09-19T10:14:00;100905.03;;;25.41;100.00
51297;BME280;37380;45.186;9.792;2023-09-19T10:16:30;100879.16;;;25.42;100.00
51297;BME280;37380;45.186;9.792;2023-09-19T10:19:02;100896.00;;;26.18;100.00
51297;BME280;37380;45.186;9.792;2023-09-19T10:21:34;100925.91;;;26.98;100.00
51297;BME280;37380;45.186;9.792;2023-09-19T10:24:03;100896.31;;;26.72;100.00
51297;BME280;37380;45.186;9.792;2023-09-19T10:26:36;100921.81;;;26.21;100.00
51297;BME280;37380;45.186;9.792;2023-09-19T10:29:06;100924.31;;;26.27;100.00
51297;BME280;37380;45.186;9.792;2023-09-19T10:31:38;100892.66;;;26.74;100.00
51297;BME280;37380;45.186;9.792;2023-09-19T10:34:15;100922.91;;;25.77;100.00
51297;BME280;37380;45.186;9.792;2023-09-19T10:37:20;100876.75;;;25.31;100.00
51297;BME280;37380;45.186;9.792;2023-09-19T10:39:58;100906.84;;;25.77;100.00
51297;BME280;37380;45.186;9.792;2023-09-19T10:42:30;100886.22;;;25.44;100.00
51297;BME280;37380;45.186;9.792;2023-09-19T10:45:00;100853.44;;;25.36;100.00
51297;BME280;37380;45.186;9.792;2023-09-19T10:47:30;100856.34;;;26.31;100.00
51297;BME280;37380;45.186;9.792;2023-09-19T10:50:06;100876.47;;;26.13;100.00
51297;BME280;37380;45.186;9.792;2023-09-19T10:53:07;100910.97;;;26.90;100.00
51297;BME280;37380;45.186;9.792;2023-09-19T10:55:56;100893.75;;;26.67;100.00
51297;BME280;37380;45.186;9.792;2023-09-19T10:59:14;100877.44;;;26.76;100.00
51297;BME280;37380;45.186;9.792;2023-09-19T11:01:55;100882.31;;;26.92;100.00
51297;BME280;37380;45.186;9.792;2023-09-19T11:05:11;100862.69;;;26.60;100.00
51297;BME280;37380;45.186;9.792;2023-09-19T11:08:11;100852.75;;;26.93;100.00
51297;BME280;37380;45.186;9.792;2023-09-19T11:10:50;100874.47;;;28.23;100.00
51297;BME280;37380;45.186;9.792;2023-09-19T11:13:27;100900.72;;;28.40;100.00
51297;BME280;37380;45.186;9.792;2023-09-19T11:26:42;100796.50;;;27.21;100.00
51297;BME280;37380;45.186;9.792;2023-09-19T11:29:30;100671.69;;;25.64;100.00
51297;BME280;37380;45.186;9.792;2023-09-19T11:32:00;100878.38;;;27.03;100.00
51297;BME280;37380;45.186;9.792;2023-09-19T11:34:43;100855.94;;;27.90;100.00
51297;BME280;37380;45.186;9.792;2023-09-19T11:40:07;100873.97;;;27.87;100.00
51297;BME280;37380;45.186;9.792;2023-09-19T11:42:47;100858.06;;;28.06;100.00
51297;BME280;37380;45.186;9.792;2023-09-19T11:48:18;100865.97;;;26.70;100.00
51297;BME280;37380;45.186;9.792;2023-09-19T11:51:17;100860.13;;;26.57;100.00
51297;BME280;37380;45.186;9.792;2023-09-19T11:53:55;100870.84;;;26.57;100.00
51297;BME280;37380;45.186;9.792;2023-09-19T11:56:30;100818.06;;;26.28;100.00
51297;BME280;37380;45.186;9.792;2023-09-19T11:59:26;100854.84;;;26.54;100.00
51297;BME280;37380;45.186;9.792;2023-09-19T12:02:07;100832.72;;;27.05;100.00
51297;BME280;37380;45.186;9.792;2023-09-19T12:05:08;100807.31;;;27.18;100.00
51297;BME280;37380;45.186;9.792;2023-09-19T12:08:04;100857.97;;;27.56;96.14
51297;BME280;37380;45.186;9.792;2023-09-19T12:10:48;100824.97;;;26.96;91.08
51297;BME280;37380;45.186;9.792;2023-09-19T12:13:46;100799.47;;;27.39;97.30
51297;BME280;37380;45.186;9.792;2023-09-19T12:16:17;100850.44;;;28.18;95.71
51297;BME280;37380;45.186;9.792;2023-09-19T12:18:50;100818.16;;;27.95;84.46
51297;BME280;37380;45.186;9.792;2023-09-19T12:21:22;100846.50;;;27.22;94.05
51297;BME280;37380;45.186;9.792;2023-09-19T12:24:16;100838.25;;;27.00;93.79
51297;BME280;37380;45.186;9.792;2023-09-19T12:26:47;100827.56;;;26.99;94.41
51297;BME280;37380;45.186;9.792;2023-09-19T12:29:19;100830.69;;;27.13;92.04
51297;BME280;37380;45.186;9.792;2023-09-19T12:31:57;100824.34;;;27.17;89.39
51297;BME280;37380;45.186;9.792;2023-09-19T12:34:27;100742.31;;;26.54;89.09
51297;BME280;37380;45.186;9.792;2023-09-19T12:37:07;100830.22;;;27.28;87.07
51297;BME280;37380;45.186;9.792;2023-09-19T12:39:44;100812.03;;;27.38;83.24
51297;BME280;37380;45.186;9.792;2023-09-19T12:42:17;100830.94;;;28.13;86.69
51297;BME280;37380;45.186;9.792;2023-09-19T12:44:46;100821.09;;;28.37;86.45
51297;BME280;37380;45.186;9.792;2023-09-19T12:47:20;100820.72;;;28.23;90.47
51297;BME280;37380;45.186;9.792;2023-09-19T12:50:21;100765.00;;;27.53;81.42
51297;BME280;37380;45.186;9.792;2023-09-19T12:53:26;100813.66;;;27.42;84.51
51297;BME280;37380;45.186;9.792;2023-09-19T12:56:39;100816.94;;;27.52;85.23
51297;BME280;37380;45.186;9.792;2023-09-19T12:59:42;100803.00;;;27.41;86.63
51297;BME280;37380;45.186;9.792;2023-09-19T13:02:20;100778.03;;;27.39;86.77
51297;BME280;37380;45.186;9.792;2023-09-19T13:05:17;100781.31;;;27.47;83.86
51297;BME280;37380;45.186;9.792;2023-09-19T13:08:23;100795.47;;;27.79;80.06
51297;BME280;37380;45.186;9.792;2023-09-19T13:11:16;100700.06;;;27.17;82.04
51297;BME280;37380;45.186;9.792;2023-09-19T13:14:27;100768.78;;;27.21;83.83
51297;BME280;37380;45.186;9.792;2023-09-19T13:22:03;100796.06;;;27.34;86.74
51297;BME280;37380;45.186;9.792;2023-09-19T13:24:30;100787.41;;;27.52;86.17
51297;BME280;37380;45.186;9.792;2023-09-19T13:27:03;100787.84;;;27.91;84.63
51297;BME280;37380;45.186;9.792;2023-09-19T13:30:05;100749.97;;;27.99;87.39
51297;BME280;37380;45.186;9.792;2023-09-19T13:33:10;100771.91;;;27.60;78.41
51297;BME280;37380;45.186;9.792;2023-09-19T13:35:38;100748.75;;;27.31;78.98
51297;BME280;37380;45.186;9.792;2023-09-19T13:38:08;100775.59;;;27.31;78.90
51297;BME280;37380;45.186;9.792;2023-09-19T13:40:40;100781.06;;;27.28;81.14
51297;BME280;37380;45.186;9.792;2023-09-19T13:43:10;100777.84;;;27.70;89.55
51297;BME280;37380;45.186;9.792;2023-09-19T13:45:38;100736.50;;;27.24;85.29
51297;BME280;37380;45.186;9.792;2023-09-19T13:48:05;100737.38;;;27.24;84.71
51297;BME280;37380;45.186;9.792;2023-09-19T13:50:32;100767.94;;;27.45;82.01
51297;BME280;37380;45.186;9.792;2023-09-19T13:53:00;100775.09;;;27.71;81.57
51297;BME280;37380;45.186;9.792;2023-09-19T13:55:35;100741.63;;;27.31;81.05
51297;BME280;37380;45.186;9.792;2023-09-19T13:58:36;100761.06;;;27.38;83.60